Current Weather

Tindal

Tindal, Australia (YPTN)

Report from: Sunday, February 5, 2023 2:00 PM AEDT
Current time: Sunday, February 5, 2023 2:43 PM AEDT

Nearby weather
Weather history
Weather forecast

Temperature32.0°C (89.6°F)
Heat index33.5°C (92.3°F)
Dew point19.0°C (66.2°F)
Winds 7 kts (3.6 m/s, 8.1 mph) Vrb
Winds variableWinds variable from East-Northeast (60°) to East-Southeast (120°)
Clouds Sky clear
Altimeter29.71 in.Hg (1006 mB)
Relative humidity46 %
Density altitude2,483 ft. (757 m)
Remarks Fully automated report
No clouds detected
Flight conditions Visual Meteorological Conditions
Raw dataYPTN 050300Z AUTO 09007KT 060V120 //// // NCD 32/19 Q1006 RF00.0/000.0
An unhandled exception has occurred. See browser dev tools for details. Reload 🗙